Time;durP1;ratioP1;P1;durP2;ratioP2;P2;SDS_P1;SDS_P2;PMS_P1;PMS_P2;Temp;Humidity;BMP_temperature;BMP_pressure;BME280_temperature;BME280_humidity;BME280_pressure;Samples;Min_cycle;Max_cycle;Signal;HPM_P1;HPM_P2
2023/07/30 00:00:00;;;;;;;;;;;17.00;99.90;;;;;;5113067;28;19975;-67
2023/07/30 00:02:27;;;;;;;;;;;17.10;99.90;;;;;;5112930;28;19908;-67
2023/07/30 00:04:54;;;;;;;;;;;17.20;99.90;;;;;;5094963;28;19912;-67
2023/07/30 00:07:20;;;;;;;;;;;17.30;99.90;;;;;;5092655;28;19909;-66
2023/07/30 00:09:47;;;;;;;;;;;17.50;99.90;;;;;;5091893;28;19908;-66
2023/07/30 00:12:14;;;;;;;;;;;17.70;99.90;;;;;;5102426;28;19916;-66
2023/07/30 00:14:40;;;;;;;;;;;17.80;99.90;;;;;;5112906;28;19908;-66
2023/07/30 00:17:07;;;;;;;;;;;17.90;99.90;;;;;;5094659;28;19908;-67
2023/07/30 00:19:35;;;;;;;;;;;17.90;99.90;;;;;;5094155;28;20299;-66
2023/07/30 00:22:02;;;;;;;;;;;18.10;99.90;;;;;;5110949;28;19912;-67
2023/07/30 00:24:28;;;;;;;;;;;18.20;99.90;;;;;;5091995;28;19912;-67
2023/07/30 00:26:55;;;;;;;;;;;18.30;99.90;;;;;;5100069;28;19951;-68
2023/07/30 00:29:21;;;;;;;;;;;18.50;99.90;;;;;;5112848;28;20003;-67
2023/07/30 00:31:48;;;;;;;;;;;18.60;99.90;;;;;;5112358;28;19908;-67
2023/07/30 00:34:15;;;;;;;;;;;18.70;99.90;;;;;;5112402;28;19923;-67
2023/07/30 00:36:41;;;;;;;;;;;18.80;99.90;;;;;;5112622;28;19907;-67
2023/07/30 00:39:11;;;;;;;;;;;19.00;99.90;;;;;;5097105;28;19928;-68
2023/07/30 00:41:37;;;;;;;;;;;19.10;99.90;;;;;;5091568;28;19915;-66
2023/07/30 00:44:04;;;;;;;;;;;19.20;99.90;;;;;;5092676;28;19970;-66
2023/07/30 00:46:31;;;;;;;;;;;19.30;99.90;;;;;;5095914;28;19908;-66
2023/07/30 00:48:57;;;;;;;;;;;19.40;99.90;;;;;;5095914;28;20402;-65
2023/07/30 00:51:24;;;;;;;;;;;19.50;99.90;;;;;;5095645;28;19918;-67
2023/07/30 00:53:51;;;;;;;;;;;19.70;99.90;;;;;;5077455;28;19908;-67
2023/07/30 00:56:18;;;;;;;;;;;19.80;99.90;;;;;;5109529;28;19951;-67
2023/07/30 00:58:46;;;;;;;;;;;19.90;99.90;;;;;;5115813;28;19916;-67
2023/07/30 01:01:13;;;;;;;;;;;20.10;99.90;;;;;;5116012;28;19915;-67
2023/07/30 01:03:39;;;;;;;;;;;20.20;99.90;;;;;;5115788;28;19915;-68
2023/07/30 01:06:06;;;;;;;;;;;20.30;99.90;;;;;;5113989;28;19956;-66
2023/07/30 01:08:33;;;;;;;;;;;20.50;99.90;;;;;;5103633;28;20012;-68
2023/07/30 01:11:00;;;;;;;;;;;20.50;99.50;;;;;;5095390;28;20245;-66
2023/07/30 01:13:27;;;;;;;;;;;20.60;99.40;;;;;;5095497;28;19908;-66
2023/07/30 01:15:54;;;;;;;;;;;20.70;99.00;;;;;;5095379;28;20004;-66
2023/07/30 01:18:21;;;;;;;;;;;20.80;98.40;;;;;;5094977;28;19916;-68
2023/07/30 01:20:47;;;;;;;;;;;20.80;98.00;;;;;;5095031;28;20288;-66
2023/07/30 01:23:14;;;;;;;;;;;20.90;98.00;;;;;;5095169;28;19917;-67
2023/07/30 01:25:42;;;;;;;;;;;21.10;97.80;;;;;;5085418;28;20400;-66
2023/07/30 01:28:10;;;;;;;;;;;21.20;97.20;;;;;;5076903;28;19935;-67
2023/07/30 01:30:41;;;;;;;;;;;21.30;97.40;;;;;;5095220;28;19912;-67
2023/07/30 01:33:08;;;;;;;;;;;21.30;96.90;;;;;;5094661;28;19908;-67
2023/07/30 01:35:35;;;;;;;;;;;21.50;96.80;;;;;;5115385;28;19908;-67
2023/07/30 01:38:03;;;;;;;;;;;21.60;96.50;;;;;;5115294;28;19912;-67
2023/07/30 01:40:30;;;;;;;;;;;21.80;96.70;;;;;;5115248;28;19907;-66
2023/07/30 01:42:56;;;;;;;;;;;21.90;96.60;;;;;;5113016;28;20386;-67
2023/07/30 01:45:23;;;;;;;;;;;22.00;96.20;;;;;;5097842;28;19922;-68
2023/07/30 01:47:50;;;;;;;;;;;22.00;96.40;;;;;;5094321;28;20067;-66
2023/07/30 01:50:16;;;;;;;;;;;22.20;95.40;;;;;;5094768;28;19915;-66
2023/07/30 01:52:43;;;;;;;;;;;22.20;95.30;;;;;;5094537;28;19966;-66
2023/07/30 01:55:10;;;;;;;;;;;22.40;95.10;;;;;;5094305;28;19963;-67
2023/07/30 01:57:36;;;;;;;;;;;22.60;94.40;;;;;;5094116;28;19908;-67
2023/07/30 02:00:03;;;;;;;;;;;22.70;94.00;;;;;;5094439;28;19912;-66
2023/07/30 02:02:30;;;;;;;;;;;22.90;93.90;;;;;;5106748;28;20268;-66
2023/07/30 02:04:56;;;;;;;;;;;22.90;93.20;;;;;;5114702;28;19939;-67
2023/07/30 02:07:23;;;;;;;;;;;23.00;92.70;;;;;;5114649;28;20411;-65
2023/07/30 02:09:50;;;;;;;;;;;23.00;93.10;;;;;;5114879;28;19907;-68
2023/07/30 02:12:16;;;;;;;;;;;23.20;92.90;;;;;;5114759;28;20404;-66
2023/07/30 02:14:43;;;;;;;;;;;23.30;93.00;;;;;;5094277;28;19908;-67
2023/07/30 02:17:09;;;;;;;;;;;23.40;92.70;;;;;;5093789;28;19966;-67
2023/07/30 02:19:36;;;;;;;;;;;23.50;92.50;;;;;;5098563;28;19915;-66
2023/07/30 02:22:03;;;;;;;;;;;23.50;92.80;;;;;;5114314;28;20276;-67
2023/07/30 02:24:29;;;;;;;;;;;23.50;92.50;;;;;;5114213;28;19969;-66
2023/07/30 02:26:56;;;;;;;;;;;23.60;92.70;;;;;;5114343;28;20348;-68
2023/07/30 02:29:22;;;;;;;;;;;23.60;91.70;;;;;;5109305;28;19919;-66
2023/07/30 02:31:49;;;;;;;;;;;23.60;92.20;;;;;;5093741;28;19934;-68
2023/07/30 02:34:16;;;;;;;;;;;23.60;92.20;;;;;;5093792;28;19908;-67
2023/07/30 02:36:42;;;;;;;;;;;23.60;92.30;;;;;;5093952;28;19908;-67
2023/07/30 02:39:09;;;;;;;;;;;23.50;92.20;;;;;;5109896;28;19962;-67
2023/07/30 02:41:36;;;;;;;;;;;23.50;92.20;;;;;;5113822;28;20002;-68
2023/07/30 02:44:02;;;;;;;;;;;23.50;91.70;;;;;;5099576;28;19920;-66
2023/07/30 02:46:29;;;;;;;;;;;23.50;91.80;;;;;;5093872;28;19951;-67
2023/07/30 02:48:55;;;;;;;;;;;23.70;91.90;;;;;;5093579;28;20383;-67
2023/07/30 02:51:22;;;;;;;;;;;23.80;91.90;;;;;;5093325;28;19915;-67
2023/07/30 02:53:52;;;;;;;;;;;24.00;91.10;;;;;;5093183;28;19908;-67
2023/07/30 02:56:18;;;;;;;;;;;24.00;90.70;;;;;;5093290;28;19915;-68
2023/07/30 02:58:45;;;;;;;;;;;24.20;91.00;;;;;;5110324;28;19929;-68
2023/07/30 03:01:12;;;;;;;;;;;24.20;90.60;;;;;;5113635;28;19919;-68
2023/07/30 03:03:38;;;;;;;;;;;24.30;90.50;;;;;;5113500;28;19904;-67
2023/07/30 03:06:05;;;;;;;;;;;24.40;90.60;;;;;;5111561;28;19912;-67
2023/07/30 03:08:31;;;;;;;;;;;24.80;89.70;;;;;;5112840;28;19912;-68
2023/07/30 03:10:59;;;;;;;;;;;25.10;89.60;;;;;;5113407;28;20002;-67
2023/07/30 03:13:26;;;;;;;;;;;25.60;89.40;;;;;;5104602;28;19923;-68
2023/07/30 03:15:53;;;;;;;;;;;26.60;87.60;;;;;;5092900;28;20007;-68
2023/07/30 03:18:19;;;;;;;;;;;27.20;82.70;;;;;;5092561;28;19916;-67
2023/07/30 03:20:46;;;;;;;;;;;27.00;83.10;;;;;;5092990;28;19912;-66
2023/07/30 03:23:13;;;;;;;;;;;26.80;83.30;;;;;;5092851;28;20368;-66
2023/07/30 03:25:39;;;;;;;;;;;26.60;82.80;;;;;;5101988;28;19919;-67
2023/07/30 03:28:06;;;;;;;;;;;26.50;83.30;;;;;;5113197;28;19958;-65
2023/07/30 03:30:32;;;;;;;;;;;27.00;83.40;;;;;;5113348;28;20395;-69
2023/07/30 03:32:59;;;;;;;;;;;28.30;80.70;;;;;;5111971;28;19930;-69
2023/07/30 03:35:26;;;;;;;;;;;29.60;78.10;;;;;;5092881;28;19908;-67
2023/07/30 03:37:52;;;;;;;;;;;30.50;75.50;;;;;;5092849;28;19908;-68
2023/07/30 03:40:19;;;;;;;;;;;30.30;74.20;;;;;;5092758;28;19912;-67
2023/07/30 03:42:45;;;;;;;;;;;30.30;74.30;;;;;;5104904;28;20372;-67
2023/07/30 03:45:12;;;;;;;;;;;30.50;73.40;;;;;;5113432;28;19908;-67
2023/07/30 03:47:39;;;;;;;;;;;31.20;72.70;;;;;;5112911;28;19930;-67
2023/07/30 03:50:05;;;;;;;;;;;31.90;71.10;;;;;;5113166;28;19919;-66
2023/07/30 03:52:32;;;;;;;;;;;32.90;68.90;;;;;;5112901;28;19908;-70
2023/07/30 03:54:59;;;;;;;;;;;33.50;66.80;;;;;;5113101;28;19908;-68
2023/07/30 03:57:25;;;;;;;;;;;33.90;65.10;;;;;;5097335;28;19912;-66
2023/07/30 03:59:52;;;;;;;;;;;34.30;62.80;;;;;;5092611;28;19916;-67
2023/07/30 04:02:18;;;;;;;;;;;34.70;61.30;;;;;;5074396;28;20353;-68
2023/07/30 04:04:48;;;;;;;;;;;34.80;59.90;;;;;;5092570;28;19912;-69
2023/07/30 04:07:14;;;;;;;;;;;35.20;59.20;;;;;;5092385;28;20024;-68
2023/07/30 04:09:41;;;;;;;;;;;35.80;58.10;;;;;;5097050;28;19919;-67
2023/07/30 04:12:08;;;;;;;;;;;35.70;57.20;;;;;;5112423;28;19907;-69
2023/07/30 04:14:34;;;;;;;;;;;35.10;57.80;;;;;;5112723;28;20318;-68
2023/07/30 04:17:01;;;;;;;;;;;35.10;57.40;;;;;;5098412;28;19966;-68
2023/07/30 04:19:28;;;;;;;;;;;35.60;56.80;;;;;;5093997;28;19943;-68
2023/07/30 04:21:54;;;;;;;;;;;35.00;56.00;;;;;;5095871;28;20067;-66
2023/07/30 04:24:21;;;;;;;;;;;33.50;58.10;;;;;;5096451;28;20454;-67
2023/07/30 04:26:48;;;;;;;;;;;33.10;58.20;;;;;;5115754;28;19912;-67
2023/07/30 04:29:16;;;;;;;;;;;32.70;58.30;;;;;;5116908;28;19907;-67
2023/07/30 04:31:43;;;;;;;;;;;32.10;58.90;;;;;;5116270;28;19908;-68
2023/07/30 04:34:09;;;;;;;;;;;31.20;59.90;;;;;;5116664;28;19947;-67
2023/07/30 04:36:36;;;;;;;;;;;30.30;62.00;;;;;;5103845;28;19973;-68
2023/07/30 04:39:02;;;;;;;;;;;29.80;62.10;;;;;;5112042;28;20000;-68
2023/07/30 04:41:29;;;;;;;;;;;29.10;63.00;;;;;;5095972;28;20007;-66
2023/07/30 04:43:56;;;;;;;;;;;28.60;63.70;;;;;;5095823;28;19927;-69
2023/07/30 04:46:22;;;;;;;;;;;28.20;64.60;;;;;;5102758;28;19954;-67
2023/07/30 04:48:49;;;;;;;;;;;28.00;65.20;;;;;;5115949;28;19908;-67
2023/07/30 04:51:16;;;;;;;;;;;27.70;66.30;;;;;;5116107;28;19908;-66
2023/07/30 04:53:42;;;;;;;;;;;27.60;66.00;;;;;;5115922;28;19985;-67
2023/07/30 04:56:09;;;;;;;;;;;27.30;66.50;;;;;;5116343;28;19908;-68
2023/07/30 04:58:35;;;;;;;;;;;27.20;66.90;;;;;;5116062;28;19922;-67
2023/07/30 05:01:02;;;;;;;;;;;27.00;67.30;;;;;;5116237;28;19912;-68
2023/07/30 05:03:29;;;;;;;;;;;26.90;67.50;;;;;;5115931;28;19908;-68
2023/07/30 05:05:55;;;;;;;;;;;26.80;66.70;;;;;;5116018;28;19908;-67
2023/07/30 05:08:22;;;;;;;;;;;26.80;67.90;;;;;;5113811;28;19920;-68
2023/07/30 05:10:49;;;;;;;;;;;26.70;67.60;;;;;;5115374;28;19908;-67
2023/07/30 05:13:15;;;;;;;;;;;26.70;67.70;;;;;;5097084;28;20339;-68
2023/07/30 05:15:42;;;;;;;;;;;26.60;67.60;;;;;;5097708;28;20356;-65
2023/07/30 05:18:09;;;;;;;;;;;26.60;67.40;;;;;;5112609;28;19934;-68
2023/07/30 05:20:36;;;;;;;;;;;26.50;67.80;;;;;;5095110;28;19912;-66
2023/07/30 05:23:02;;;;;;;;;;;26.50;69.20;;;;;;5095257;28;19908;-66
2023/07/30 05:25:29;;;;;;;;;;;26.60;67.60;;;;;;5106056;28;19912;-67
2023/07/30 05:27:56;;;;;;;;;;;26.60;68.00;;;;;;5115268;28;19912;-68
2023/07/30 05:30:22;;;;;;;;;;;26.60;70.20;;;;;;5114673;28;19915;-68
2023/07/30 05:32:49;;;;;;;;;;;26.70;67.60;;;;;;5115377;28;20006;-67
2023/07/30 05:35:18;;;;;;;;;;;26.70;68.20;;;;;;5111908;28;19912;-68
2023/07/30 05:37:45;;;;;;;;;;;26.70;67.70;;;;;;5094807;28;19912;-66
2023/07/30 05:40:11;;;;;;;;;;;26.80;66.70;;;;;;5095125;28;20365;-68
2023/07/30 05:42:38;;;;;;;;;;;27.00;66.30;;;;;;5094614;28;19908;-67
2023/07/30 05:45:05;;;;;;;;;;;27.20;65.80;;;;;;5094845;28;20075;-68
2023/07/30 05:47:31;;;;;;;;;;;27.40;65.40;;;;;;5094455;28;20549;-68
2023/07/30 05:49:58;;;;;;;;;;;27.40;64.20;;;;;;5094782;28;19912;-69
2023/07/30 05:52:25;;;;;;;;;;;27.20;63.80;;;;;;5094459;28;19951;-67
2023/07/30 05:54:51;;;;;;;;;;;27.20;63.70;;;;;;5094660;28;19931;-68
2023/07/30 05:57:18;;;;;;;;;;;27.10;63.50;;;;;;5094450;28;19908;-68
2023/07/30 05:59:45;;;;;;;;;;;27.00;64.10;;;;;;5094486;28;19916;-67
2023/07/30 06:02:11;;;;;;;;;;;27.00;63.30;;;;;;5094248;28;19919;-67
2023/07/30 06:04:38;;;;;;;;;;;27.20;63.30;;;;;;5109922;28;20368;-69
2023/07/30 06:07:05;;;;;;;;;;;27.50;63.00;;;;;;5114859;28;19908;-67
2023/07/30 06:09:31;;;;;;;;;;;27.90;62.10;;;;;;5096443;28;19950;-68
2023/07/30 06:11:58;;;;;;;;;;;28.10;62.10;;;;;;5107126;28;19912;-67
2023/07/30 06:14:25;;;;;;;;;;;28.30;62.00;;;;;;5094078;28;19915;-67
2023/07/30 06:16:52;;;;;;;;;;;28.50;60.70;;;;;;5094012;28;19908;-68
2023/07/30 06:19:19;;;;;;;;;;;28.90;59.90;;;;;;5094244;28;19917;-67
2023/07/30 06:21:46;;;;;;;;;;;29.60;59.80;;;;;;5094326;28;20392;-67
2023/07/30 06:24:13;;;;;;;;;;;30.50;58.60;;;;;;5093825;28;19930;-67
2023/07/30 06:26:39;;;;;;;;;;;31.30;57.60;;;;;;5109029;28;20348;-67
2023/07/30 06:29:06;;;;;;;;;;;31.80;57.00;;;;;;5114131;28;19908;-68
2023/07/30 06:31:32;;;;;;;;;;;32.10;57.00;;;;;;5106296;28;19912;-68
2023/07/30 06:33:59;;;;;;;;;;;31.70;57.10;;;;;;5094158;28;20002;-67
2023/07/30 06:36:26;;;;;;;;;;;30.90;58.00;;;;;;5093880;28;20011;-68
2023/07/30 06:38:52;;;;;;;;;;;29.80;59.30;;;;;;5093539;28;19916;-66
2023/07/30 06:41:19;;;;;;;;;;;28.90;60.40;;;;;;5093264;28;19908;-67
2023/07/30 06:43:46;;;;;;;;;;;27.80;61.90;;;;;;5093448;28;19975;-66
2023/07/30 06:46:12;;;;;;;;;;;27.00;63.10;;;;;;5093808;28;20007;-66
2023/07/30 06:48:39;;;;;;;;;;;26.50;64.00;;;;;;5093600;28;19915;-67
2023/07/30 06:51:07;;;;;;;;;;;26.00;64.40;;;;;;5093601;28;20040;-67
2023/07/30 06:53:33;;;;;;;;;;;25.50;65.20;;;;;;5093556;28;19908;-67
2023/07/30 06:56:00;;;;;;;;;;;25.00;66.50;;;;;;5093417;28;19908;-67
2023/07/30 06:58:27;;;;;;;;;;;24.70;66.60;;;;;;5093305;28;19994;-67
2023/07/30 07:00:53;;;;;;;;;;;24.30;67.40;;;;;;5112864;28;20494;-67
2023/07/30 07:03:20;;;;;;;;;;;24.00;68.00;;;;;;5113606;28;19914;-68
2023/07/30 07:05:53;;;;;;;;;;;23.80;68.40;;;;;;5113735;28;19939;-68
2023/07/30 07:08:19;;;;;;;;;;;23.60;69.30;;;;;;5113542;28;19915;-66
2023/07/30 07:10:46;;;;;;;;;;;23.40;69.60;;;;;;5113485;28;19919;-68
2023/07/30 07:13:15;;;;;;;;;;;23.20;70.10;;;;;;5113454;28;19961;-67
2023/07/30 07:15:45;;;;;;;;;;;23.00;71.50;;;;;;5111583;28;20421;-67
2023/07/30 07:18:11;;;;;;;;;;;22.80;72.40;;;;;;5113004;28;19966;-69
2023/07/30 07:20:38;;;;;;;;;;;22.70;73.50;;;;;;5113641;28;19933;-67
2023/07/30 07:23:05;;;;;;;;;;;22.50;74.50;;;;;;5113298;28;19908;-67
2023/07/30 07:25:31;;;;;;;;;;;22.30;75.40;;;;;;5113350;28;19908;-69
2023/07/30 07:27:58;;;;;;;;;;;22.10;75.60;;;;;;5111184;28;19914;-66
2023/07/30 07:30:24;;;;;;;;;;;21.90;76.50;;;;;;5112787;28;19911;-67
2023/07/30 07:32:53;;;;;;;;;;;21.70;77.60;;;;;;5113333;28;19911;-66
2023/07/30 07:35:23;;;;;;;;;;;21.50;77.50;;;;;;5113191;28;19915;-66
2023/07/30 07:37:49;;;;;;;;;;;21.40;79.10;;;;;;5113334;28;19953;-67
2023/07/30 07:40:16;;;;;;;;;;;21.20;80.30;;;;;;5113145;28;19915;-68
2023/07/30 07:42:43;;;;;;;;;;;21.00;80.80;;;;;;5113092;28;20027;-67
2023/07/30 07:45:09;;;;;;;;;;;20.80;81.30;;;;;;5113346;28;19991;-67
2023/07/30 07:47:36;;;;;;;;;;;20.70;82.60;;;;;;5113103;28;19954;-66
2023/07/30 07:50:03;;;;;;;;;;;20.50;83.20;;;;;;5113150;28;19908;-68
2023/07/30 07:52:29;;;;;;;;;;;20.40;83.90;;;;;;5113054;28;19907;-68
2023/07/30 07:54:56;;;;;;;;;;;20.30;84.30;;;;;;5110697;28;19913;-67
2023/07/30 07:57:23;;;;;;;;;;;20.10;84.40;;;;;;5096891;28;19919;-66
2023/07/30 07:59:49;;;;;;;;;;;20.10;84.30;;;;;;5078729;28;19916;-67
2023/07/30 08:02:16;;;;;;;;;;;19.90;84.90;;;;;;5096698;28;19908;-67
2023/07/30 08:04:43;;;;;;;;;;;19.90;85.40;;;;;;5096754;28;19988;-66
2023/07/30 08:07:09;;;;;;;;;;;19.80;84.30;;;;;;5096480;28;19919;-67
2023/07/30 08:09:36;;;;;;;;;;;19.80;84.90;;;;;;5096652;28;20360;-67
2023/07/30 08:12:03;;;;;;;;;;;19.60;82.40;;;;;;5078280;28;19954;-67
2023/07/30 08:14:31;;;;;;;;;;;19.70;84.20;;;;;;5096611;28;19942;-68
2023/07/30 08:16:57;;;;;;;;;;;19.60;82.80;;;;;;5096249;28;20379;-67
2023/07/30 08:19:24;;;;;;;;;;;19.70;83.90;;;;;;5096427;28;19916;-66
2023/07/30 08:21:50;;;;;;;;;;;19.60;84.60;;;;;;5096245;28;19908;-67
2023/07/30 08:24:17;;;;;;;;;;;19.50;85.70;;;;;;5114844;28;19915;-69
2023/07/30 08:26:44;;;;;;;;;;;19.40;85.20;;;;;;5116506;28;20372;-67
2023/07/30 08:29:13;;;;;;;;;;;19.40;85.60;;;;;;5116744;28;19994;-67
2023/07/30 08:31:39;;;;;;;;;;;19.30;85.40;;;;;;5105454;28;20003;-66
2023/07/30 08:34:06;;;;;;;;;;;19.20;86.10;;;;;;5096293;28;19909;-67
2023/07/30 08:36:33;;;;;;;;;;;19.10;86.00;;;;;;5078027;28;19915;-66
2023/07/30 08:38:59;;;;;;;;;;;19.00;86.40;;;;;;5077762;28;20010;-66
2023/07/30 08:41:26;;;;;;;;;;;18.90;87.20;;;;;;5096015;28;20405;-67
2023/07/30 08:43:53;;;;;;;;;;;18.80;88.10;;;;;;5096019;28;19920;-67
2023/07/30 08:46:19;;;;;;;;;;;18.70;88.30;;;;;;5095885;28;20299;-68
2023/07/30 08:48:46;;;;;;;;;;;18.60;88.40;;;;;;5103249;28;19919;-67
2023/07/30 08:51:13;;;;;;;;;;;18.60;88.40;;;;;;5116005;28;19919;-67
2023/07/30 08:53:39;;;;;;;;;;;18.50;88.70;;;;;;5106971;28;19918;-65
2023/07/30 08:56:06;;;;;;;;;;;18.40;88.60;;;;;;5116141;28;19908;-69
2023/07/30 08:58:33;;;;;;;;;;;18.40;88.90;;;;;;5116243;28;20337;-66
2023/07/30 09:01:01;;;;;;;;;;;18.30;89.60;;;;;;5116120;28;19907;-66
2023/07/30 09:03:29;;;;;;;;;;;18.30;89.30;;;;;;5116052;28;20306;-66
2023/07/30 09:05:56;;;;;;;;;;;18.20;89.30;;;;;;5115414;28;19955;-67
2023/07/30 09:08:22;;;;;;;;;;;18.20;89.30;;;;;;5108943;28;19947;-66
2023/07/30 09:10:50;;;;;;;;;;;18.10;89.20;;;;;;5095565;28;19912;-68
2023/07/30 09:13:25;;;;;;;;;;;18.10;87.70;;;;;;5095480;28;19913;-67
2023/07/30 09:15:52;;;;;;;;;;;18.20;86.50;;;;;;5096436;28;19912;-67
2023/07/30 09:18:19;;;;;;;;;;;18.20;86.20;;;;;;5095180;28;19977;-67
2023/07/30 09:20:45;;;;;;;;;;;18.20;85.80;;;;;;5095426;28;19959;-67
2023/07/30 09:23:12;;;;;;;;;;;18.30;85.50;;;;;;5103040;28;19965;-67
2023/07/30 09:25:39;;;;;;;;;;;18.30;85.20;;;;;;5094786;28;19973;-67
2023/07/30 09:28:06;;;;;;;;;;;18.40;84.80;;;;;;5095056;28;20325;-67
2023/07/30 09:30:36;;;;;;;;;;;18.40;84.90;;;;;;5095160;28;19912;-67
2023/07/30 09:33:02;;;;;;;;;;;18.50;85.20;;;;;;5095125;28;19908;-68
2023/07/30 09:35:33;;;;;;;;;;;18.50;84.90;;;;;;5095179;28;19908;-67
2023/07/30 09:38:02;;;;;;;;;;;18.50;85.00;;;;;;5094691;28;19908;-67
2023/07/30 09:40:33;;;;;;;;;;;18.40;84.90;;;;;;5094889;28;19912;-68
2023/07/30 09:42:59;;;;;;;;;;;18.40;85.00;;;;;;5099723;28;20338;-68
2023/07/30 09:45:27;;;;;;;;;;;18.40;84.70;;;;;;5099579;28;19919;-66
2023/07/30 09:47:56;;;;;;;;;;;18.40;84.70;;;;;;5094841;28;20365;-67
2023/07/30 09:50:22;;;;;;;;;;;18.40;85.20;;;;;;5094564;28;20369;-67
2023/07/30 09:52:49;;;;;;;;;;;18.40;84.60;;;;;;5094843;28;19908;-66
2023/07/30 09:55:18;;;;;;;;;;;18.50;84.50;;;;;;5094557;28;19919;-67
2023/07/30 09:57:45;;;;;;;;;;;18.40;85.40;;;;;;5094535;28;19908;-66
2023/07/30 10:00:12;;;;;;;;;;;18.30;84.70;;;;;;5094432;28;20410;-67
2023/07/30 10:02:40;;;;;;;;;;;18.30;84.80;;;;;;5094575;28;19908;-66
2023/07/30 10:05:11;;;;;;;;;;;18.30;85.50;;;;;;5076435;28;19908;-67
2023/07/30 10:07:42;;;;;;;;;;;18.20;85.10;;;;;;5094485;28;19909;-68
2023/07/30 10:10:09;;;;;;;;;;;18.30;85.00;;;;;;5094698;28;19908;-69
2023/07/30 10:12:36;;;;;;;;;;;18.30;84.80;;;;;;5114013;28;19912;-67
2023/07/30 10:15:03;;;;;;;;;;;18.30;85.20;;;;;;5096727;28;19908;-67
2023/07/30 10:17:32;;;;;;;;;;;18.40;85.20;;;;;;5115353;28;19908;-67
2023/07/30 10:20:18;;;;;;;;;;;18.40;85.30;;;;;;5114771;28;19923;-66
2023/07/30 10:22:46;;;;;;;;;;;18.40;85.50;;;;;;5114441;28;19908;-66
2023/07/30 10:25:13;;;;;;;;;;;18.40;85.70;;;;;;5114541;28;19930;-65
2023/07/30 10:27:43;;;;;;;;;;;18.40;85.80;;;;;;5114628;28;20420;-67
2023/07/30 10:30:16;;;;;;;;;;;18.40;86.00;;;;;;5114444;28;19949;-67
2023/07/30 10:32:55;;;;;;;;;;;18.40;86.20;;;;;;5110321;28;20011;-66
2023/07/30 10:35:40;;;;;;;;;;;18.40;86.30;;;;;;5096340;28;19912;-66
2023/07/30 10:38:20;;;;;;;;;;;18.30;86.70;;;;;;5110093;28;19912;-66
2023/07/30 10:41:03;;;;;;;;;;;18.30;86.60;;;;;;5091295;28;19912;-66
2023/07/30 10:43:31;;;;;;;;;;;18.20;86.70;;;;;;5075154;28;20273;-67
2023/07/30 10:45:57;;;;;;;;;;;18.20;87.00;;;;;;5075394;28;19908;-66
2023/07/30 10:48:31;;;;;;;;;;;18.00;87.30;;;;;;5093520;28;19962;-67
2023/07/30 10:50:58;;;;;;;;;;;18.10;87.40;;;;;;5093531;28;19915;-66
2023/07/30 10:53:25;;;;;;;;;;;18.10;87.70;;;;;;5093564;28;19953;-66
2023/07/30 10:55:52;;;;;;;;;;;18.00;87.90;;;;;;5093408;28;19908;-65
2023/07/30 10:58:19;;;;;;;;;;;17.90;88.20;;;;;;5093119;28;19912;-67
2023/07/30 11:00:46;;;;;;;;;;;17.90;88.40;;;;;;5093360;28;19920;-68
2023/07/30 11:03:12;;;;;;;;;;;17.80;88.90;;;;;;5093375;28;19915;-68
2023/07/30 11:05:39;;;;;;;;;;;17.80;89.00;;;;;;5097288;28;19912;-66
2023/07/30 11:08:05;;;;;;;;;;;17.70;89.20;;;;;;5093260;28;19912;-65
2023/07/30 11:10:32;;;;;;;;;;;17.70;89.40;;;;;;5094851;28;19911;-65
2023/07/30 11:12:59;;;;;;;;;;;17.70;90.10;;;;;;5113068;28;20272;-66
2023/07/30 11:15:25;;;;;;;;;;;17.60;90.00;;;;;;5113360;28;20613;-67
2023/07/30 11:17:52;;;;;;;;;;;17.70;89.80;;;;;;5113563;28;19915;-66
2023/07/30 11:20:28;;;;;;;;;;;17.60;89.90;;;;;;5113648;28;19923;-67
2023/07/30 11:22:54;;;;;;;;;;;17.60;90.00;;;;;;5109250;28;19954;-67
2023/07/30 11:25:21;;;;;;;;;;;17.50;90.10;;;;;;5094852;28;19964;-68
2023/07/30 11:27:48;;;;;;;;;;;17.40;90.00;;;;;;5091233;28;19912;-67
2023/07/30 11:30:15;;;;;;;;;;;17.40;89.80;;;;;;5094722;28;19922;-65
2023/07/30 11:32:44;;;;;;;;;;;17.50;89.80;;;;;;5112322;28;19908;-67
2023/07/30 11:35:15;;;;;;;;;;;17.40;89.60;;;;;;5112827;28;19907;-66
2023/07/30 11:37:42;;;;;;;;;;;17.40;89.40;;;;;;5112973;28;19939;-67
2023/07/30 11:40:12;;;;;;;;;;;17.40;89.20;;;;;;5112696;28;19916;-66
2023/07/30 11:42:42;;;;;;;;;;;17.30;89.40;;;;;;5113064;28;19907;-68
2023/07/30 11:45:19;;;;;;;;;;;17.30;89.50;;;;;;5113192;28;20338;-65
2023/07/30 11:47:46;;;;;;;;;;;17.30;89.70;;;;;;5112910;28;19912;-67
2023/07/30 11:50:13;;;;;;;;;;;17.20;89.90;;;;;;5112927;28;20276;-65
2023/07/30 11:52:55;;;;;;;;;;;17.10;90.00;;;;;;5112617;28;19912;-66
2023/07/30 11:55:24;;;;;;;;;;;17.10;90.20;;;;;;5112934;28;20280;-66
2023/07/30 11:57:51;;;;;;;;;;;17.00;90.40;;;;;;5112084;28;19908;-65
2023/07/30 12:00:20;;;;;;;;;;;17.00;90.60;;;;;;5092320;28;20385;-65
2023/07/30 12:02:47;;;;;;;;;;;16.90;90.60;;;;;;5092108;28;19955;-66
2023/07/30 12:05:17;;;;;;;;;;;16.80;90.50;;;;;;5092183;28;19908;-67
2023/07/30 12:07:44;;;;;;;;;;;16.80;90.60;;;;;;5092179;28;20280;-67
2023/07/30 12:10:12;;;;;;;;;;;16.70;90.90;;;;;;5092373;28;19908;-67
2023/07/30 12:12:52;;;;;;;;;;;16.70;91.20;;;;;;5095825;28;20002;-68
2023/07/30 12:15:19;;;;;;;;;;;16.50;91.40;;;;;;5112617;28;19935;-66
2023/07/30 12:17:46;;;;;;;;;;;16.50;91.90;;;;;;5112421;28;19959;-68
2023/07/30 12:20:12;;;;;;;;;;;16.50;92.00;;;;;;5112388;28;19916;-67
2023/07/30 12:22:39;;;;;;;;;;;16.40;92.20;;;;;;5112664;28;19914;-66
2023/07/30 12:25:07;;;;;;;;;;;16.40;92.30;;;;;;5112510;28;20344;-66
2023/07/30 12:27:34;;;;;;;;;;;16.30;92.50;;;;;;5096150;28;19908;-69
2023/07/30 12:30:01;;;;;;;;;;;16.20;92.70;;;;;;5092157;28;19919;-67
2023/07/30 12:32:28;;;;;;;;;;;16.20;93.00;;;;;;5091974;28;19908;-67
2023/07/30 12:34:55;;;;;;;;;;;16.10;93.10;;;;;;5091924;28;19914;-68
2023/07/30 12:37:22;;;;;;;;;;;16.00;93.20;;;;;;5091864;28;19908;-67
2023/07/30 12:39:48;;;;;;;;;;;16.00;93.20;;;;;;5092492;28;19920;-66
2023/07/30 12:42:15;;;;;;;;;;;16.00;93.30;;;;;;5095551;28;20347;-68
2023/07/30 12:44:41;;;;;;;;;;;15.90;93.50;;;;;;5096007;28;19966;-68
2023/07/30 12:47:08;;;;;;;;;;;15.90;93.60;;;;;;5096168;28;19965;-67
2023/07/30 12:49:35;;;;;;;;;;;15.80;93.50;;;;;;5095936;28;19962;-66
2023/07/30 12:52:01;;;;;;;;;;;15.80;93.60;;;;;;5077302;28;20349;-66
2023/07/30 12:54:28;;;;;;;;;;;15.80;93.50;;;;;;5103160;28;19912;-66
2023/07/30 12:56:54;;;;;;;;;;;15.80;93.60;;;;;;5115818;28;19918;-67
2023/07/30 12:59:21;;;;;;;;;;;15.80;93.90;;;;;;5115999;28;20368;-67
2023/07/30 13:01:48;;;;;;;;;;;15.70;93.30;;;;;;5116060;28;19908;-66
2023/07/30 13:04:14;;;;;;;;;;;15.70;93.60;;;;;;5096992;28;20288;-66
2023/07/30 13:06:41;;;;;;;;;;;15.70;93.80;;;;;;5095738;28;19908;-68
2023/07/30 13:09:07;;;;;;;;;;;15.70;94.00;;;;;;5095456;28;19957;-66
2023/07/30 13:11:34;;;;;;;;;;;15.60;93.90;;;;;;5104546;28;19919;-67
2023/07/30 13:14:01;;;;;;;;;;;15.60;94.30;;;;;;5097411;28;19907;-67
2023/07/30 13:16:28;;;;;;;;;;;15.60;94.20;;;;;;5115668;28;20502;-66
2023/07/30 13:18:56;;;;;;;;;;;15.50;94.20;;;;;;5115247;28;19916;-66
2023/07/30 13:21:23;;;;;;;;;;;15.50;94.30;;;;;;5115005;28;19933;-65
2023/07/30 13:23:50;;;;;;;;;;;15.50;94.60;;;;;;5095074;28;19935;-67
2023/07/30 13:26:16;;;;;;;;;;;15.40;94.70;;;;;;5095022;28;20260;-67
2023/07/30 13:28:43;;;;;;;;;;;15.50;94.90;;;;;;5095062;28;19987;-66
2023/07/30 13:31:10;;;;;;;;;;;15.40;95.10;;;;;;5076779;28;19909;-67
2023/07/30 13:33:37;;;;;;;;;;;15.40;95.30;;;;;;5096277;28;19919;-67
2023/07/30 13:36:06;;;;;;;;;;;15.20;95.90;;;;;;5095011;28;19952;-66
2023/07/30 13:38:32;;;;;;;;;;;15.10;96.00;;;;;;5094778;28;20426;-68
2023/07/30 13:40:59;;;;;;;;;;;15.00;96.20;;;;;;5094808;28;20384;-65
2023/07/30 13:43:26;;;;;;;;;;;14.90;96.50;;;;;;5095179;28;19924;-68
2023/07/30 13:45:52;;;;;;;;;;;15.00;96.80;;;;;;5094811;28;19939;-67
2023/07/30 13:48:19;;;;;;;;;;;14.90;97.10;;;;;;5094830;28;19908;-67
2023/07/30 13:50:46;;;;;;;;;;;14.80;97.50;;;;;;5088864;28;19916;-68
2023/07/30 13:53:13;;;;;;;;;;;14.70;97.70;;;;;;5114704;28;19960;-66
2023/07/30 13:55:40;;;;;;;;;;;14.60;98.50;;;;;;5114862;28;19908;-65
2023/07/30 13:58:06;;;;;;;;;;;14.50;98.70;;;;;;5115101;28;19908;-66
2023/07/30 14:00:33;;;;;;;;;;;14.50;99.00;;;;;;5114994;28;19912;-67
2023/07/30 14:03:00;;;;;;;;;;;14.50;99.20;;;;;;5114788;28;19907;-67
2023/07/30 14:05:29;;;;;;;;;;;14.30;99.00;;;;;;5114703;28;19912;-68
2023/07/30 14:07:59;;;;;;;;;;;14.30;99.50;;;;;;5114764;28;19935;-66
2023/07/30 14:10:27;;;;;;;;;;;14.30;99.90;;;;;;5114778;28;19953;-66
2023/07/30 14:12:54;;;;;;;;;;;14.20;99.90;;;;;;5114766;28;19908;-68
2023/07/30 14:15:20;;;;;;;;;;;14.20;99.90;;;;;;5114541;28;19908;-68